Time;durP1;ratioP1;P1;durP2;ratioP2;P2;SDS_P1;SDS_P2;PMS_P1;PMS_P2;Temp;Humidity;BMP_temperature;BMP_pressure;BME280_temperature;BME280_humidity;BME280_pressure;Samples;Min_cycle;Max_cycle;Signal;HPM_P1;HPM_P2
2022/01/23 00:00:19;;;;;;;9.40;7.40;;;4.70;93.80;;;;;;6229445;28;20480;-63
2022/01/23 00:03:23;;;;;;;10.20;9.10;;;4.80;93.70;;;;;;6229811;28;20471;-64
2022/01/23 00:06:26;;;;;;;7.47;6.10;;;4.80;93.60;;;;;;6229445;28;20460;-65
2022/01/23 00:09:30;;;;;;;6.80;6.10;;;4.80;93.30;;;;;;6227279;28;20540;-63
2022/01/23 00:12:39;;;;;;;7.30;6.27;;;4.90;93.40;;;;;;6229321;28;20480;-64
2022/01/23 00:19:04;;;;;;;7.37;6.57;;;4.90;93.20;;;;;;6229536;28;20490;-65
2022/01/23 00:22:09;;;;;;;8.30;6.43;;;4.90;93.20;;;;;;6228760;28;20802;-64
2022/01/23 00:31:54;;;;;;;7.67;6.83;;;5.00;93.10;;;;;;6227951;28;20483;-65
2022/01/23 00:34:58;;;;;;;7.03;6.37;;;4.90;93.00;;;;;;6229350;28;20545;-64
2022/01/23 00:38:03;;;;;;;6.83;6.23;;;4.90;93.10;;;;;;6229003;28;20534;-65
2022/01/23 00:41:06;;;;;;;7.20;6.50;;;4.90;93.10;;;;;;6244699;28;20963;-65
2022/01/23 00:44:09;;;;;;;7.33;6.63;;;5.00;93.10;;;;;;6253370;28;20467;-64
2022/01/23 00:47:15;;;;;;;6.77;6.10;;;5.00;92.90;;;;;;6251833;28;20550;-65
2022/01/23 00:50:19;;;;;;;7.03;6.33;;;5.00;92.90;;;;;;6227871;28;20487;-65
2022/01/23 00:53:22;;;;;;;7.23;6.23;;;5.00;92.80;;;;;;6226871;28;20487;-65
2022/01/23 00:56:26;;;;;;;7.17;6.20;;;5.00;92.90;;;;;;6227743;28;20780;-66
2022/01/23 00:59:29;;;;;;;8.73;6.63;;;5.00;93.10;;;;;;6225225;28;20476;-65
2022/01/23 01:02:32;;;;;;;9.30;6.70;;;5.00;93.00;;;;;;6228892;28;20476;-65
2022/01/23 01:05:37;;;;;;;7.67;6.93;;;5.00;93.00;;;;;;6228315;28;20472;-65
2022/01/23 01:08:41;;;;;;;7.50;6.93;;;5.00;93.00;;;;;;6228059;28;20472;-65
2022/01/23 01:11:56;;;;;;;8.70;6.80;;;5.00;92.90;;;;;;6219381;28;20479;-64
2022/01/23 01:15:24;;;;;;;7.90;7.10;;;5.00;92.80;;;;;;6216199;28;20864;-64
2022/01/23 01:31:54;;;;;;;8.10;6.60;;;4.90;92.90;;;;;;6211347;28;20468;-65
2022/01/23 01:35:06;;;;;;;7.70;7.10;;;4.80;92.90;;;;;;6215111;28;20491;-65
2022/01/23 01:38:11;;;;;;;8.57;7.67;;;4.80;93.00;;;;;;6215857;28;20480;-65
2022/01/23 01:41:15;;;;;;;8.30;6.90;;;4.80;93.20;;;;;;6211640;28;20491;-65
2022/01/23 01:44:19;;;;;;;8.00;7.20;;;4.80;93.20;;;;;;6211571;28;20798;-65
2022/01/23 01:47:22;;;;;;;7.77;7.00;;;4.80;93.20;;;;;;6217731;28;20531;-64
2022/01/23 01:50:25;;;;;;;8.90;7.20;;;4.80;93.30;;;;;;6207457;28;20481;-64
2022/01/23 01:53:30;;;;;;;10.70;7.63;;;4.80;93.70;;;;;;6213886;28;20499;-65
2022/01/23 01:56:39;;;;;;;9.37;7.23;;;4.80;93.30;;;;;;6212789;28;20976;-64
2022/01/23 01:59:50;;;;;;;11.53;8.63;;;4.80;93.30;;;;;;6210396;28;20956;-65
2022/01/23 02:09:43;;;;;;;9.50;7.60;;;4.70;93.40;;;;;;6169725;28;20472;-67
2022/01/23 02:16:42;;;;;;;7.57;6.83;;;4.70;93.40;;;;;;6195181;28;20471;-67
2022/01/23 02:23:26;;;;;;;10.60;7.53;;;4.60;93.40;;;;;;6226331;28;20480;-66
2022/01/23 02:56:51;;;;;;;10.53;9.43;;;4.00;93.60;;;;;;6222352;28;20486;-67
2022/01/23 02:59:56;;;;;;;8.50;7.63;;;3.90;93.70;;;;;;6231778;28;20480;-64
2022/01/23 03:03:04;;;;;;;9.60;7.00;;;3.90;93.80;;;;;;6225831;28;20471;-64
2022/01/23 03:06:22;;;;;;;9.43;7.60;;;3.90;93.80;;;;;;6226391;28;20476;-64
2022/01/23 03:24:05;;;;;;;6.33;5.60;;;3.90;93.90;;;;;;6228501;28;20487;-66
2022/01/23 03:26:32;;;;;;;11.43;7.00;;;3.70;94.10;;;;;;6225287;28;20476;-65
2022/01/23 03:29:52;;;;;;;7.33;5.80;;;3.60;94.30;;;;;;6225688;28;20788;-64
2022/01/23 03:32:55;;;;;;;8.67;7.73;;;3.60;94.30;;;;;;6225642;28;20786;-64
2022/01/23 03:35:58;;;;;;;7.80;5.97;;;3.50;94.30;;;;;;6226212;28;20468;-64
2022/01/23 03:39:02;;;;;;;6.50;5.90;;;3.50;94.50;;;;;;6225915;28;20987;-65
2022/01/23 03:42:06;;;;;;;7.23;6.53;;;3.50;94.70;;;;;;6226199;28;20472;-64
2022/01/23 03:45:32;;;;;;;8.50;6.40;;;3.40;94.80;;;;;;6227429;28;20456;-64
2022/01/23 03:51:57;;;;;;;8.63;6.00;;;3.30;95.00;;;;;;6228785;28;20515;-63
2022/01/23 03:55:00;;;;;;;6.10;5.50;;;3.30;95.20;;;;;;6222026;28;20470;-64
2022/01/23 03:58:03;;;;;;;6.67;5.67;;;3.30;95.30;;;;;;6226292;28;20475;-65
2022/01/23 04:01:08;;;;;;;6.27;5.67;;;3.20;95.40;;;;;;6226560;28;20936;-66
2022/01/23 04:04:25;;;;;;;6.67;6.00;;;3.20;95.50;;;;;;6229900;28;20471;-67
2022/01/23 04:07:29;;;;;;;6.73;6.03;;;3.20;95.50;;;;;;6229243;28;20959;-67
2022/01/23 04:10:32;;;;;;;12.63;10.63;;;3.20;95.50;;;;;;6227014;28;20538;-66
2022/01/23 04:13:44;;;;;;;12.67;8.80;;;3.20;95.50;;;;;;6229875;28;20474;-66
2022/01/23 04:33:51;;;;;;;6.20;5.00;;;3.10;95.30;;;;;;6231221;28;20464;-67
2022/01/23 04:47:42;;;;;;;7.10;6.40;;;3.10;95.30;;;;;;6231574;28;20464;-66
2022/01/23 05:00:35;;;;;;;6.67;6.00;;;3.00;95.60;;;;;;6230278;28;20511;-64
2022/01/23 05:07:03;;;;;;;5.17;4.67;;;3.00;95.60;;;;;;6234357;28;20471;-66
2022/01/23 05:10:06;;;;;;;5.23;4.73;;;2.90;95.40;;;;;;6230337;28;20476;-67
2022/01/23 05:13:09;;;;;;;6.30;5.80;;;2.90;95.50;;;;;;6229531;28;20490;-64
2022/01/23 05:16:13;;;;;;;5.27;4.70;;;3.00;95.50;;;;;;6227767;28;20865;-64
2022/01/23 05:19:16;;;;;;;6.40;5.40;;;2.90;95.50;;;;;;6228142;28;20844;-64
2022/01/23 05:22:28;;;;;;;5.33;4.83;;;2.90;95.40;;;;;;6227738;28;20483;-65
2022/01/23 05:25:36;;;;;;;6.17;5.50;;;2.90;95.50;;;;;;6227632;28;20503;-66
2022/01/23 05:28:39;;;;;;;8.77;6.00;;;2.90;95.60;;;;;;6228399;28;20484;-64
2022/01/23 05:31:43;;;;;;;5.37;4.97;;;2.90;95.60;;;;;;6227680;28;20488;-66
2022/01/23 05:34:47;;;;;;;5.93;5.47;;;2.90;95.70;;;;;;6227352;28;20480;-64
2022/01/23 05:37:52;;;;;;;5.60;5.10;;;2.90;95.80;;;;;;6229046;28;20475;-66
2022/01/23 05:40:57;;;;;;;5.40;4.90;;;3.00;95.80;;;;;;6230111;28;20488;-66
2022/01/23 05:44:02;;;;;;;5.40;4.90;;;3.10;95.60;;;;;;6230125;28;20582;-67
2022/01/23 05:47:07;;;;;;;6.20;5.60;;;3.00;95.50;;;;;;6229024;28;20807;-66
2022/01/23 05:50:10;;;;;;;6.60;5.40;;;3.10;95.60;;;;;;6227640;28;20475;-66
2022/01/23 05:53:15;;;;;;;5.30;4.70;;;3.10;95.50;;;;;;6211679;28;20480;-65
2022/01/23 05:56:18;;;;;;;6.27;5.67;;;3.10;95.30;;;;;;6227134;28;20490;-66
2022/01/23 05:59:22;;;;;;;8.57;6.10;;;3.10;95.30;;;;;;6228339;28;20486;-66
2022/01/23 06:02:25;;;;;;;5.90;5.30;;;3.10;95.20;;;;;;6227040;28;20490;-64
2022/01/23 06:05:28;;;;;;;6.20;5.70;;;3.10;95.10;;;;;;6218159;28;20479;-64
2022/01/23 06:08:33;;;;;;;7.63;5.93;;;3.10;95.10;;;;;;6229443;28;20479;-65
2022/01/23 06:11:36;;;;;;;7.20;6.50;;;3.10;95.10;;;;;;6227439;28;20476;-66
2022/01/23 06:14:39;;;;;;;5.90;5.40;;;3.10;95.20;;;;;;6226628;28;20468;-64
2022/01/23 06:17:42;;;;;;;7.70;6.40;;;3.10;95.10;;;;;;6227179;28;20490;-66
2022/01/23 06:20:45;;;;;;;6.40;5.80;;;3.10;95.10;;;;;;6228384;28;20495;-64
2022/01/23 06:24:00;;;;;;;6.67;6.17;;;3.00;95.10;;;;;;6227535;28;20475;-64
2022/01/23 06:27:04;;;;;;;6.60;6.00;;;2.90;95.20;;;;;;6226833;28;20476;-64
2022/01/23 06:30:09;;;;;;;7.20;6.03;;;2.90;95.40;;;;;;6226826;28;20480;-66
2022/01/23 06:33:12;;;;;;;6.90;6.20;;;2.80;95.50;;;;;;6225951;28;20484;-66
2022/01/23 06:36:15;;;;;;;7.07;6.47;;;2.80;95.70;;;;;;6225831;28;20562;-66
2022/01/23 06:39:21;;;;;;;8.30;7.57;;;2.70;95.80;;;;;;6226468;28;20475;-66
2022/01/23 06:42:24;;;;;;;7.23;6.63;;;2.60;96.00;;;;;;6226143;28;20484;-67
2022/01/23 06:45:28;;;;;;;7.67;6.87;;;2.70;96.30;;;;;;6226679;28;20464;-66
2022/01/23 06:48:31;;;;;;;9.50;7.57;;;2.70;96.40;;;;;;6227466;28;20473;-66
2022/01/23 06:51:34;;;;;;;9.87;7.60;;;2.70;96.40;;;;;;6226215;28;20468;-66
2022/01/23 06:54:39;;;;;;;8.27;6.70;;;2.70;96.60;;;;;;6228594;28;20447;-67
2022/01/23 06:57:42;;;;;;;8.23;7.43;;;2.80;96.70;;;;;;6228957;28;20459;-67
2022/01/23 07:00:45;;;;;;;11.60;10.40;;;2.80;96.80;;;;;;6229933;28;20487;-68
2022/01/23 07:03:48;;;;;;;12.00;10.80;;;2.80;96.70;;;;;;6229639;28;20947;-68
2022/01/23 07:06:52;;;;;;;12.53;10.83;;;2.90;96.80;;;;;;6225140;28;20464;-67
2022/01/23 07:09:57;;;;;;;10.10;9.10;;;3.00;96.70;;;;;;6230346;28;20773;-67
2022/01/23 07:13:00;;;;;;;11.60;10.20;;;3.20;96.60;;;;;;6231560;28;20460;-67
2022/01/23 07:16:06;;;;;;;11.17;10.00;;;3.20;96.30;;;;;;6220036;28;20484;-67
2022/01/23 07:19:10;;;;;;;9.13;8.23;;;3.20;96.30;;;;;;6208497;28;20969;-67
2022/01/23 07:22:13;;;;;;;11.10;8.60;;;3.30;96.20;;;;;;6208486;28;20485;-68
2022/01/23 07:25:17;;;;;;;9.00;8.10;;;3.40;95.90;;;;;;6208420;28;20473;-67
2022/01/23 07:28:24;;;;;;;9.30;8.30;;;3.50;95.80;;;;;;6208556;28;20473;-68
2022/01/23 07:31:57;;;;;;;9.20;8.27;;;3.60;95.70;;;;;;6209432;28;20487;-68
2022/01/23 07:35:00;;;;;;;8.97;8.17;;;3.60;95.60;;;;;;6207196;28;20469;-67
2022/01/23 07:38:03;;;;;;;9.20;8.07;;;3.70;95.40;;;;;;6207703;28;20469;-67
2022/01/23 07:41:08;;;;;;;9.17;8.20;;;3.60;95.50;;;;;;6206131;28;20481;-67
2022/01/23 07:44:11;;;;;;;10.93;8.77;;;3.40;95.30;;;;;;6206428;28;20472;-68
2022/01/23 07:47:14;;;;;;;11.43;9.33;;;3.20;95.40;;;;;;6209187;28;20481;-68
2022/01/23 07:50:17;;;;;;;10.63;9.50;;;3.30;95.90;;;;;;6213432;28;20481;-68
2022/01/23 07:53:21;;;;;;;12.83;9.80;;;3.40;95.80;;;;;;6212185;28;20488;-68
2022/01/23 07:56:27;;;;;;;10.27;9.37;;;3.40;95.60;;;;;;6211873;28;20480;-68
2022/01/23 07:59:30;;;;;;;10.20;8.80;;;3.40;95.30;;;;;;6211887;28;20495;-68
2022/01/23 08:02:33;;;;;;;9.87;8.60;;;3.60;95.50;;;;;;6211430;28;20981;-67
2022/01/23 08:05:37;;;;;;;8.20;7.37;;;3.50;95.10;;;;;;6206051;28;20468;-66
2022/01/23 08:08:40;;;;;;;10.50;9.17;;;3.50;95.30;;;;;;6205356;28;20475;-65
2022/01/23 08:11:45;;;;;;;10.80;8.17;;;3.40;95.30;;;;;;6217877;28;20488;-65
2022/01/23 08:14:48;;;;;;;9.43;8.53;;;3.30;95.40;;;;;;6229501;28;20471;-66
2022/01/23 08:17:51;;;;;;;9.07;8.13;;;3.30;95.70;;;;;;6230847;28;20483;-65
2022/01/23 08:20:54;;;;;;;10.50;9.40;;;3.40;96.00;;;;;;6229093;28;20491;-64
2022/01/23 08:23:57;;;;;;;10.37;9.00;;;3.50;96.10;;;;;;6229859;28;20478;-64
2022/01/23 08:27:02;;;;;;;10.27;9.27;;;3.70;95.70;;;;;;6233112;28;20475;-64
2022/01/23 08:30:06;;;;;;;13.80;9.70;;;3.90;95.90;;;;;;6233590;28;20545;-65
2022/01/23 08:33:09;;;;;;;11.60;10.40;;;4.20;95.30;;;;;;6229415;28;20482;-65
2022/01/23 08:36:12;;;;;;;10.87;9.70;;;4.50;94.70;;;;;;6229468;28;20475;-65
2022/01/23 08:39:21;;;;;;;9.73;8.80;;;4.50;94.00;;;;;;6228262;28;20484;-65
2022/01/23 08:42:26;;;;;;;13.13;9.00;;;4.50;94.00;;;;;;6228614;28;20944;-65
2022/01/23 08:45:32;;;;;;;9.00;8.20;;;4.60;94.20;;;;;;6228784;28;20988;-65
2022/01/23 08:48:35;;;;;;;9.63;8.60;;;4.50;94.00;;;;;;6229336;28;20447;-65
2022/01/23 08:51:38;;;;;;;10.07;9.07;;;4.60;93.90;;;;;;6228669;28;20464;-65
2022/01/23 08:54:41;;;;;;;11.10;8.80;;;4.60;93.90;;;;;;6229023;28;20452;-64
2022/01/23 08:57:46;;;;;;;8.90;7.80;;;4.60;93.90;;;;;;6227357;28;20458;-64
2022/01/23 09:01:02;;;;;;;10.23;8.40;;;4.80;94.10;;;;;;6225004;28;20472;-66
2022/01/23 09:04:07;;;;;;;10.30;8.40;;;5.20;93.70;;;;;;6228903;28;20496;-67
2022/01/23 09:07:10;;;;;;;9.00;8.10;;;5.40;93.30;;;;;;6228903;28;20467;-67
2022/01/23 09:10:13;;;;;;;9.73;8.73;;;5.70;92.70;;;;;;6227477;28;20491;-64
2022/01/23 09:13:30;;;;;;;10.07;8.10;;;5.90;92.20;;;;;;6227847;28;20468;-64
2022/01/23 09:16:35;;;;;;;8.70;7.90;;;6.20;91.80;;;;;;6228110;28;20827;-64
2022/01/23 09:19:39;;;;;;;9.50;8.13;;;6.50;91.10;;;;;;6226335;28;20983;-64
2022/01/23 09:22:42;;;;;;;9.90;7.80;;;6.80;90.40;;;;;;6228036;28;20479;-64
2022/01/23 09:25:48;;;;;;;9.80;7.30;;;7.00;89.30;;;;;;6236469;28;20464;-64
2022/01/23 09:28:56;;;;;;;9.53;8.63;;;7.10;88.50;;;;;;6237178;28;20463;-64
2022/01/23 09:32:00;;;;;;;8.93;8.10;;;7.10;87.20;;;;;;6237131;28;20468;-64
2022/01/23 09:35:03;;;;;;;9.47;8.20;;;7.00;87.00;;;;;;6228216;28;20468;-64
2022/01/23 09:38:06;;;;;;;9.20;8.30;;;6.80;87.70;;;;;;6232406;28;20475;-64
2022/01/23 09:41:11;;;;;;;9.60;8.70;;;6.80;88.20;;;;;;6234251;28;20795;-64
2022/01/23 09:44:19;;;;;;;9.90;8.90;;;6.60;88.60;;;;;;6229923;28;20472;-64
2022/01/23 09:47:23;;;;;;;9.77;8.77;;;6.50;88.90;;;;;;6225973;28;20483;-64
2022/01/23 09:50:27;;;;;;;8.70;7.93;;;6.50;88.80;;;;;;6227619;28;20542;-64
2022/01/23 09:53:31;;;;;;;9.43;8.53;;;6.50;89.30;;;;;;6226609;28;20793;-65
2022/01/23 09:56:35;;;;;;;10.33;9.23;;;6.30;89.10;;;;;;6210506;28;20478;-64
2022/01/23 09:59:41;;;;;;;10.07;9.07;;;6.40;90.10;;;;;;6226764;28;20476;-64
2022/01/23 10:02:46;;;;;;;11.93;9.10;;;6.50;89.90;;;;;;6226599;28;20484;-64
2022/01/23 10:05:54;;;;;;;10.90;9.80;;;6.60;89.10;;;;;;6227231;28;20547;-63
2022/01/23 10:08:57;;;;;;;10.50;9.17;;;6.80;88.70;;;;;;6226718;28;20472;-63
2022/01/23 10:12:00;;;;;;;14.93;10.80;;;7.10;88.50;;;;;;6226830;28;20487;-63
2022/01/23 10:15:06;;;;;;;10.90;9.90;;;7.30;87.50;;;;;;6226884;28;20959;-64
2022/01/23 10:18:09;;;;;;;10.40;9.50;;;7.40;86.80;;;;;;6223344;28;20484;-67
2022/01/23 10:21:14;;;;;;;11.70;10.60;;;7.30;86.10;;;;;;6227382;28;20487;-67
2022/01/23 10:24:18;;;;;;;10.03;9.03;;;7.50;86.00;;;;;;6227821;28;20484;-68
2022/01/23 10:27:23;;;;;;;11.37;10.20;;;7.80;84.80;;;;;;6228878;28;20472;-65
2022/01/23 10:30:29;;;;;;;11.23;10.07;;;7.80;85.70;;;;;;6228736;28;20962;-65
2022/01/23 10:33:35;;;;;;;10.27;9.23;;;7.90;83.30;;;;;;6226780;28;20504;-67
2022/01/23 10:36:49;;;;;;;10.50;9.40;;;7.70;83.10;;;;;;6226569;28;20444;-63
2022/01/23 10:39:53;;;;;;;10.20;9.20;;;7.30;83.70;;;;;;6225959;28;20484;-62
2022/01/23 10:49:49;;;;;;;10.03;8.93;;;6.50;87.10;;;;;;6226272;28;20959;-63
2022/01/23 10:52:53;;;;;;;11.27;9.37;;;6.40;87.80;;;;;;6225428;28;20472;-64
2022/01/23 10:56:06;;;;;;;12.60;10.30;;;6.30;88.60;;;;;;6225853;28;20483;-64
2022/01/23 10:59:11;;;;;;;10.80;9.70;;;6.30;89.60;;;;;;6225649;28;20530;-63
2022/01/23 11:02:21;;;;;;;10.63;9.57;;;6.10;89.20;;;;;;6225677;28;20468;-64
2022/01/23 11:05:32;;;;;;;10.50;9.37;;;6.10;89.90;;;;;;6226085;28;20467;-64
2022/01/23 11:08:35;;;;;;;10.20;9.17;;;6.40;89.50;;;;;;6226219;28;20476;-63
2022/01/23 11:11:44;;;;;;;10.37;9.43;;;6.70;89.40;;;;;;6241005;28;20816;-64
2022/01/23 11:18:19;;;;;;;11.80;10.70;;;7.20;87.10;;;;;;6250336;28;20899;-65
2022/01/23 11:21:22;;;;;;;14.27;12.90;;;7.30;87.10;;;;;;6248831;28;20478;-65
2022/01/23 11:24:47;;;;;;;9.93;9.03;;;7.60;86.10;;;;;;6249457;28;20568;-65
2022/01/23 11:27:50;;;;;;;11.43;10.43;;;7.90;84.60;;;;;;6232555;28;20452;-65
2022/01/23 11:30:54;;;;;;;11.00;9.83;;;8.20;82.60;;;;;;6223929;28;20468;-65
2022/01/23 11:34:01;;;;;;;10.90;9.57;;;8.30;81.70;;;;;;6225035;28;20472;-65
2022/01/23 11:37:05;;;;;;;11.00;10.03;;;8.50;81.90;;;;;;6225132;28;20468;-66
2022/01/23 11:40:29;;;;;;;11.90;9.10;;;9.00;81.20;;;;;;6224482;28;20475;-65
2022/01/23 11:53:55;;;;;;;10.90;9.80;;;9.70;75.30;;;;;;6211257;28;20464;-66
2022/01/23 11:57:02;;;;;;;11.87;10.00;;;9.80;75.40;;;;;;6224587;28;20468;-66
2022/01/23 12:00:10;;;;;;;11.60;10.40;;;10.70;72.60;;;;;;6226017;28;20475;-65
2022/01/23 12:03:15;;;;;;;12.83;10.47;;;10.70;70.00;;;;;;6224090;28;20491;-66
2022/01/23 12:06:20;;;;;;;11.30;10.20;;;11.20;69.50;;;;;;6224037;28;20493;-66
2022/01/23 12:09:23;;;;;;;10.50;9.40;;;12.10;66.50;;;;;;6223371;28;20986;-66
2022/01/23 12:12:36;;;;;;;10.80;9.70;;;12.40;63.90;;;;;;6223381;28;20483;-66
2022/01/23 12:19:19;;;;;;;12.43;9.97;;;12.70;63.90;;;;;;6224181;28;20812;-65
2022/01/23 12:22:36;;;;;;;11.37;10.23;;;15.10;56.70;;;;;;6225321;28;20482;-65
2022/01/23 12:25:42;;;;;;;10.03;9.03;;;18.80;49.40;;;;;;6215556;28;20491;-66
2022/01/23 12:28:46;;;;;;;11.70;10.33;;;22.70;39.90;;;;;;6225085;28;20678;-67
2022/01/23 12:31:51;;;;;;;11.93;10.47;;;24.40;34.00;;;;;;6226450;28;20233;-66
2022/01/23 12:34:57;;;;;;;10.90;9.97;;;25.80;30.10;;;;;;6230949;28;20252;-66
2022/01/23 12:38:10;;;;;;;12.30;11.17;;;26.00;29.60;;;;;;6230021;28;20240;-66
2022/01/23 12:41:23;;;;;;;12.70;11.50;;;25.00;29.10;;;;;;6229786;28;20237;-66
2022/01/23 12:44:35;;;;;;;11.37;10.20;;;25.20;29.30;;;;;;6229760;28;20315;-66
2022/01/23 12:47:38;;;;;;;12.93;11.63;;;26.70;27.60;;;;;;6229763;28;20221;-66
2022/01/23 12:50:46;;;;;;;12.83;11.73;;;26.50;27.00;;;;;;6222347;28;20243;-66
2022/01/23 12:54:22;;;;;;;13.27;11.97;;;25.40;27.50;;;;;;6228790;28;20225;-65
2022/01/23 12:57:37;;;;;;;11.03;9.90;;;23.30;28.90;;;;;;6227520;28;20249;-66
2022/01/23 13:00:41;;;;;;;11.03;10.03;;;23.20;29.20;;;;;;6233143;28;20224;-64
2022/01/23 13:03:52;;;;;;;11.77;10.73;;;21.70;29.80;;;;;;6228056;28;20217;-64
2022/01/23 13:06:59;;;;;;;14.20;11.00;;;19.70;32.30;;;;;;6227971;28;20232;-65
2022/01/23 13:10:12;;;;;;;11.20;10.20;;;18.30;34.40;;;;;;6228110;28;20245;-67
2022/01/23 13:13:26;;;;;;;11.00;9.97;;;16.90;36.50;;;;;;6228406;28;20475;-64
2022/01/23 13:16:37;;;;;;;9.63;8.83;;;15.60;39.00;;;;;;6227676;28;20472;-64
2022/01/23 13:26:22;;;;;;;9.80;8.90;;;14.80;40.50;;;;;;6228235;28;20479;-65
2022/01/23 13:30:17;;;;;;;15.40;11.60;;;13.90;43.70;;;;;;6223392;28;20491;-62
2022/01/23 13:33:22;;;;;;;13.20;10.10;;;13.50;44.50;;;;;;6228314;28;20809;-63
2022/01/23 13:36:25;;;;;;;10.93;9.60;;;13.20;44.90;;;;;;6228274;28;20549;-63
2022/01/23 13:39:33;;;;;;;11.90;9.30;;;12.80;45.70;;;;;;6227959;28;20786;-62
2022/01/23 13:53:09;;;;;;;13.67;12.40;;;10.80;51.60;;;;;;6217245;28;20487;-63
2022/01/23 13:59:48;;;;;;;17.13;13.20;;;10.00;55.10;;;;;;6227814;28;20483;-62
2022/01/23 14:02:54;;;;;;;13.23;11.17;;;9.20;58.50;;;;;;6249934;28;20803;-63
2022/01/23 14:05:58;;;;;;;13.80;12.40;;;9.10;59.70;;;;;;6227423;28;20464;-62
2022/01/23 14:09:05;;;;;;;15.47;13.80;;;9.00;60.80;;;;;;6227675;28;20920;-64
2022/01/23 14:12:10;;;;;;;13.73;11.70;;;8.80;62.00;;;;;;6226722;28;20479;-64
2022/01/23 14:15:16;;;;;;;14.30;12.80;;;8.70;63.60;;;;;;6227587;28;20480;-63
2022/01/23 14:18:24;;;;;;;15.10;11.60;;;8.50;64.90;;;;;;6227158;28;20486;-64
2022/01/23 14:21:40;;;;;;;12.40;11.10;;;8.30;66.60;;;;;;6215243;28;20923;-64
2022/01/23 14:24:43;;;;;;;12.20;11.00;;;8.30;66.70;;;;;;6206276;28;20484;-64
2022/01/23 14:27:48;;;;;;;12.77;10.60;;;8.10;67.60;;;;;;6205728;28;20444;-63
2022/01/23 14:30:54;;;;;;;12.13;10.90;;;8.10;68.10;;;;;;6204121;28;20499;-69
2022/01/23 14:33:59;;;;;;;13.07;10.20;;;8.10;68.50;;;;;;6205787;28;20469;-63
2022/01/23 14:37:06;;;;;;;13.07;10.60;;;8.00;69.10;;;;;;6206969;28;20476;-63
2022/01/23 14:40:16;;;;;;;14.00;11.40;;;7.90;71.20;;;;;;6204944;28;20477;-63
2022/01/23 14:43:20;;;;;;;13.80;11.33;;;7.90;73.40;;;;;;6202621;28;20488;-64
2022/01/23 14:46:24;;;;;;;13.33;11.60;;;7.80;72.80;;;;;;6203689;28;20480;-65
2022/01/23 14:49:31;;;;;;;13.10;10.53;;;7.70;73.00;;;;;;6203736;28;20476;-64
2022/01/23 14:52:35;;;;;;;11.70;9.20;;;7.70;73.20;;;;;;6203572;28;20472;-63
2022/01/23 14:55:40;;;;;;;11.60;10.40;;;7.60;74.00;;;;;;6203508;28;20972;-63
2022/01/23 14:58:45;;;;;;;11.13;9.40;;;7.50;74.50;;;;;;6203068;28;20484;-66
2022/01/23 15:01:49;;;;;;;11.03;9.83;;;7.50;74.80;;;;;;6201838;28;20491;-64
2022/01/23 15:04:56;;;;;;;13.23;11.87;;;7.50;75.10;;;;;;6201875;28;20485;-62
2022/01/23 15:08:00;;;;;;;11.60;10.40;;;7.40;75.60;;;;;;6202142;28;21123;-62
2022/01/23 15:11:06;;;;;;;11.27;10.10;;;7.30;76.40;;;;;;6213200;28;20484;-63
2022/01/23 15:14:10;;;;;;;13.73;10.27;;;7.30;77.10;;;;;;6226565;28;20503;-63
2022/01/23 15:17:14;;;;;;;12.03;10.60;;;7.30;77.40;;;;;;6226836;28;20529;-63
2022/01/23 15:20:19;;;;;;;23.73;12.90;;;7.30;78.10;;;;;;6226649;28;20476;-62
2022/01/23 15:23:23;;;;;;;13.40;12.00;;;7.20;78.80;;;;;;6202924;28;20484;-63
2022/01/23 15:26:28;;;;;;;14.53;12.93;;;7.10;79.20;;;;;;6201480;28;20481;-63
2022/01/23 15:29:32;;;;;;;16.90;12.30;;;6.90;81.10;;;;;;6201057;28;20812;-63
2022/01/23 15:32:36;;;;;;;15.93;13.60;;;6.80;81.20;;;;;;6201318;28;20469;-63
2022/01/23 15:35:46;;;;;;;17.77;12.33;;;6.90;81.80;;;;;;6202107;28;20473;-63
2022/01/23 15:38:50;;;;;;;15.73;14.20;;;6.80;81.80;;;;;;6202316;28;20521;-63
2022/01/23 15:41:53;;;;;;;15.30;11.70;;;6.90;82.30;;;;;;6202133;28;20821;-63
2022/01/23 15:44:56;;;;;;;13.93;12.50;;;7.00;83.00;;;;;;6202371;28;20830;-63
2022/01/23 15:47:59;;;;;;;15.07;11.40;;;6.80;82.80;;;;;;6212365;28;20471;-63
2022/01/23 15:51:05;;;;;;;13.83;11.30;;;6.80;83.50;;;;;;6226846;28;20480;-62
2022/01/23 15:54:08;;;;;;;11.80;10.73;;;6.80;84.00;;;;;;6227155;28;20479;-62
2022/01/23 15:57:11;;;;;;;15.20;11.80;;;6.80;83.20;;;;;;6226378;28;20495;-62
2022/01/23 16:00:16;;;;;;;14.87;13.33;;;6.70;83.70;;;;;;6225924;28;20487;-62
2022/01/23 16:03:19;;;;;;;17.23;12.43;;;6.70;83.70;;;;;;6225724;28;20490;-61
2022/01/23 16:06:23;;;;;;;17.50;11.40;;;6.70;83.90;;;;;;6225244;28;20562;-62
2022/01/23 16:09:26;;;;;;;16.37;11.50;;;6.60;84.50;;;;;;6229569;28;20491;-63
2022/01/23 16:12:30;;;;;;;14.10;11.67;;;6.60;84.30;;;;;;6253678;28;20954;-64
2022/01/23 16:15:42;;;;;;;14.30;11.73;;;6.70;84.60;;;;;;6234107;28;20903;-63
2022/01/23 16:18:46;;;;;;;11.70;10.43;;;6.70;84.70;;;;;;6231441;28;20432;-64
2022/01/23 16:21:54;;;;;;;12.70;10.20;;;6.70;84.50;;;;;;6232093;28;20475;-64
2022/01/23 16:24:57;;;;;;;14.23;10.77;;;6.80;84.00;;;;;;6230721;28;20467;-64
2022/01/23 16:28:00;;;;;;;12.00;10.33;;;6.80;83.80;;;;;;6232346;28;20463;-64
2022/01/23 16:31:04;;;;;;;11.60;10.40;;;6.70;84.20;;;;;;6231497;28;20464;-64
2022/01/23 16:34:07;;;;;;;14.60;12.47;;;6.50;84.90;;;;;;6232293;28;20467;-65
2022/01/23 16:37:12;;;;;;;15.73;12.93;;;6.50;85.80;;;;;;6232898;28;20486;-65
2022/01/23 16:40:15;;;;;;;13.43;12.03;;;6.30;86.40;;;;;;6222777;28;20477;-64
2022/01/23 16:43:19;;;;;;;14.73;12.80;;;6.20;87.40;;;;;;6231943;28;20471;-64
2022/01/23 16:46:22;;;;;;;14.20;12.70;;;6.10;88.00;;;;;;6231712;28;20472;-64
2022/01/23 16:49:26;;;;;;;14.90;12.97;;;6.10;88.40;;;;;;6231051;28;20490;-64
2022/01/23 16:52:30;;;;;;;15.27;13.77;;;6.10;88.90;;;;;;6231562;28;20468;-65
2022/01/23 16:55:33;;;;;;;15.37;13.20;;;6.10;89.30;;;;;;6231376;28;20530;-65
2022/01/23 16:58:38;;;;;;;15.23;12.70;;;6.00;89.60;;;;;;6230776;28;20776;-64
2022/01/23 17:01:46;;;;;;;16.20;13.53;;;5.90;90.00;;;;;;6231035;28;20484;-64
2022/01/23 17:04:50;;;;;;;14.53;13.10;;;5.90;90.20;;;;;;6229773;28;20533;-65
2022/01/23 17:07:54;;;;;;;19.37;15.70;;;5.90;90.30;;;;;;6230277;28;20478;-65
2022/01/23 17:10:57;;;;;;;20.90;14.90;;;5.90;90.40;;;;;;6227781;28;20495;-63
2022/01/23 17:14:01;;;;;;;17.17;14.90;;;5.90;90.50;;;;;;6227545;28;20958;-63
2022/01/23 17:17:04;;;;;;;16.87;15.10;;;5.90;90.60;;;;;;6227599;28;20494;-64
2022/01/23 17:20:08;;;;;;;19.27;16.30;;;5.90;90.70;;;;;;6226952;28;20476;-64
2022/01/23 17:23:13;;;;;;;20.37;15.70;;;5.90;90.70;;;;;;6227655;28;20483;-63
2022/01/23 17:26:17;;;;;;;18.93;16.40;;;6.00;90.80;;;;;;6227538;28;20975;-63
2022/01/23 17:29:20;;;;;;;17.30;15.40;;;6.00;90.70;;;;;;6227481;28;20490;-63
2022/01/23 17:32:23;;;;;;;19.43;16.30;;;6.00;90.60;;;;;;6227317;28;20472;-62
2022/01/23 17:35:47;;;;;;;24.77;18.07;;;6.10;90.60;;;;;;6231280;28;20468;-62
2022/01/23 17:38:51;;;;;;;23.53;16.70;;;6.10;90.50;;;;;;6232595;28;20810;-63
2022/01/23 17:41:54;;;;;;;19.10;15.80;;;6.10;90.70;;;;;;6230860;28;20480;-63
2022/01/23 17:45:00;;;;;;;16.67;14.87;;;5.80;90.80;;;;;;6220727;28;21265;-64
2022/01/23 17:48:31;;;;;;;17.17;14.73;;;5.80;91.20;;;;;;6228684;28;20487;-64
2022/01/23 17:51:35;;;;;;;18.27;16.50;;;5.90;91.20;;;;;;6228228;28;20463;-64
2022/01/23 17:54:40;;;;;;;17.50;15.67;;;5.80;91.40;;;;;;6227294;28;20440;-64
2022/01/23 17:57:43;;;;;;;16.80;15.10;;;5.70;91.60;;;;;;6227734;28;20459;-64
2022/01/23 18:00:47;;;;;;;20.40;15.10;;;5.80;91.70;;;;;;6236361;28;20466;-63
2022/01/23 18:03:51;;;;;;;17.93;16.13;;;5.70;91.70;;;;;;6251191;28;20890;-63
2022/01/23 18:07:02;;;;;;;16.47;14.67;;;5.60;91.90;;;;;;6251503;28;20459;-63
2022/01/23 18:10:09;;;;;;;21.27;16.00;;;5.70;91.90;;;;;;6251233;28;20479;-63
2022/01/23 18:13:20;;;;;;;16.97;15.23;;;5.70;91.90;;;;;;6251667;28;20470;-63
2022/01/23 18:16:26;;;;;;;17.80;15.87;;;5.70;91.90;;;;;;6227227;28;20476;-63
2022/01/23 18:19:30;;;;;;;19.37;15.30;;;5.70;91.90;;;;;;6226582;28;20476;-63
2022/01/23 18:22:33;;;;;;;18.03;15.60;;;5.70;92.00;;;;;;6226525;28;20475;-63
2022/01/23 18:25:44;;;;;;;17.13;15.30;;;5.60;92.00;;;;;;6226201;28;20847;-65
2022/01/23 18:28:47;;;;;;;15.57;13.97;;;5.60;92.30;;;;;;6226780;28;20479;-64
2022/01/23 18:31:51;;;;;;;18.40;14.67;;;5.60;92.20;;;;;;6225895;28;20494;-65
2022/01/23 18:34:55;;;;;;;17.67;15.40;;;5.60;92.30;;;;;;6227163;28;20472;-65
2022/01/23 18:37:58;;;;;;;18.67;15.17;;;5.60;92.30;;;;;;6226566;28;20975;-66
2022/01/23 18:41:03;;;;;;;17.63;15.50;;;5.70;92.30;;;;;;6226143;28;20472;-66
2022/01/23 18:44:07;;;;;;;17.27;15.37;;;5.70;92.20;;;;;;6225618;28;20479;-66
2022/01/23 18:47:10;;;;;;;18.73;16.83;;;5.70;92.30;;;;;;6219844;28;20464;-65
2022/01/23 18:50:14;;;;;;;19.80;16.97;;;5.70;92.40;;;;;;6225636;28;20479;-67
2022/01/23 18:53:23;;;;;;;22.57;18.43;;;5.70;92.40;;;;;;6225973;28;20472;-67
2022/01/23 18:56:31;;;;;;;19.83;17.80;;;5.70;92.40;;;;;;6225863;28;20483;-66